createdAt,value
2022-09-11T00:01:07.239Z,101723.59
2022-09-11T00:03:34.997Z,101716.94
2022-09-11T00:06:04.271Z,101721.31
2022-09-11T00:08:32.042Z,101701.00
2022-09-11T00:11:07.604Z,101702.63
2022-09-11T00:13:36.307Z,101713.19
2022-09-11T00:16:07.152Z,101697.47
2022-09-11T00:18:37.674Z,101711.16
2022-09-11T00:21:05.489Z,101715.91
2022-09-11T00:23:31.947Z,101703.25
2022-09-11T00:26:02.829Z,101690.63
2022-09-11T00:28:30.063Z,101711.75
2022-09-11T00:30:59.009Z,101705.31
2022-09-11T00:33:25.855Z,101706.78
2022-09-11T00:35:58.959Z,101704.28
2022-09-11T00:38:30.616Z,101709.69
2022-09-11T00:40:59.146Z,101714.44
2022-09-11T00:43:28.319Z,101716.72
2022-09-11T00:45:59.927Z,101717.34
2022-09-11T00:48:30.704Z,101722.31
2022-09-11T00:51:00.455Z,101717.72
2022-09-11T00:53:30.413Z,101713.59
2022-09-11T00:56:01.809Z,101698.22
2022-09-11T00:58:32.949Z,101701.13
2022-09-11T01:00:59.503Z,101721.22
2022-09-11T01:03:27.555Z,101719.16
2022-09-11T01:05:54.822Z,101719.31
2022-09-11T01:08:22.664Z,101715.59
2022-09-11T01:10:56.211Z,101718.72
2022-09-11T01:13:47.597Z,101718.94
2022-09-11T01:16:23.227Z,101726.59
2022-09-11T01:18:54.703Z,101697.78
2022-09-11T01:21:33.927Z,101714.38
2022-09-11T01:24:10.306Z,101711.25
2022-09-11T01:26:52.226Z,101720.34
2022-09-11T01:29:26.434Z,101717.84
2022-09-11T01:32:14.108Z,101720.13
2022-09-11T01:34:51.541Z,101710.75
2022-09-11T01:37:27.203Z,101715.91
2022-09-11T01:40:01.462Z,101723.59
2022-09-11T01:42:33.107Z,101723.13
2022-09-11T01:45:00.292Z,101731.88
2022-09-11T01:47:28.693Z,101731.66
2022-09-11T01:50:06.385Z,101733.75
2022-09-11T01:52:39.939Z,101731.88
2022-09-11T01:55:16.449Z,101716.31
2022-09-11T01:57:50.681Z,101732.03
2022-09-11T02:00:17.256Z,101728.47
2022-09-11T02:02:49.249Z,101720.81
2022-09-11T02:05:20.493Z,101725.16
2022-09-11T02:07:53.944Z,101704.81
2022-09-11T02:10:33.790Z,101725.13
2022-09-11T02:13:29.762Z,101721.78
2022-09-11T02:16:05.378Z,101736.25
2022-09-11T02:18:58.402Z,101739.13
2022-09-11T02:21:25.916Z,101734.97
2022-09-11T02:23:52.431Z,101729.34
2022-09-11T02:26:21.853Z,101713.19
2022-09-11T02:28:48.259Z,101719.78
2022-09-11T02:31:14.715Z,101724.78
2022-09-11T02:33:42.014Z,101727.91
2022-09-11T02:36:14.265Z,101729.56
2022-09-11T02:39:04.841Z,101730.44
2022-09-11T02:41:56.041Z,101735.16
2022-09-11T02:45:04.305Z,101731.91
2022-09-11T02:47:42.566Z,101733.56
2022-09-11T02:50:24.113Z,101732.91
2022-09-11T02:53:10.642Z,101737.28
2022-09-11T02:55:52.610Z,101745.59
2022-09-11T02:58:39.029Z,101715.34
2022-09-11T03:01:08.731Z,101730.41
2022-09-11T03:03:46.617Z,101739.25
2022-09-11T03:06:19.233Z,101754.59
2022-09-11T03:08:45.775Z,101746.09
2022-09-11T03:11:15.292Z,101759.97
2022-09-11T03:13:42.114Z,101759.28
2022-09-11T03:16:08.731Z,101739.97
2022-09-11T03:18:35.629Z,101763.44
2022-09-11T03:21:02.910Z,101756.84
2022-09-11T03:23:29.964Z,101753.03
2022-09-11T03:25:56.590Z,101753.59
2022-09-11T03:28:23.070Z,101737.28
2022-09-11T03:30:50.645Z,101738.97
2022-09-11T03:33:19.627Z,101735.78
2022-09-11T03:35:47.132Z,101747.53
2022-09-11T03:38:13.600Z,101750.34
2022-09-11T03:40:42.165Z,101749.50
2022-09-11T03:43:09.456Z,101745.72
2022-09-11T03:45:35.901Z,101746.19
2022-09-11T03:48:02.435Z,101749.41
2022-09-11T03:50:28.801Z,101731.50
2022-09-11T03:52:55.185Z,101735.13
2022-09-11T03:55:23.747Z,101750.03
2022-09-11T03:57:50.195Z,101738.25
2022-09-11T04:00:16.752Z,101740.06
2022-09-11T04:02:43.205Z,101742.56
2022-09-11T04:05:10.608Z,101752.69
2022-09-11T04:07:36.981Z,101748.56
2022-09-11T04:10:03.688Z,101738.91
2022-09-11T04:12:30.079Z,101753.75
2022-09-11T04:14:57.057Z,101756.00
2022-09-11T04:17:24.463Z,101757.91
2022-09-11T04:19:50.847Z,101750.88
2022-09-11T04:22:17.237Z,101738.41
2022-09-11T04:24:43.661Z,101763.19
2022-09-11T04:27:10.021Z,101758.16
2022-09-11T04:29:36.430Z,101759.03
2022-09-11T04:32:03.283Z,101762.16
2022-09-11T04:34:29.672Z,101767.00
2022-09-11T04:36:56.481Z,101771.31
2022-09-11T04:39:22.905Z,101759.47
2022-09-11T04:41:49.382Z,101763.13
2022-09-11T04:44:16.003Z,101773.28
2022-09-11T04:46:42.920Z,101762.22
2022-09-11T04:49:10.812Z,101774.25
2022-09-11T04:51:38.436Z,101778.94
2022-09-11T04:54:05.362Z,101775.59
2022-09-11T04:56:34.467Z,101772.59
2022-09-11T04:59:16.138Z,101776.03
2022-09-11T05:01:43.957Z,101785.47
2022-09-11T05:04:12.806Z,101786.47
2022-09-11T05:06:39.874Z,101792.03
2022-09-11T05:09:09.755Z,101790.56
2022-09-11T05:11:36.780Z,101802.69
2022-09-11T05:14:03.157Z,101799.56
2022-09-11T05:16:31.079Z,101804.16
2022-09-11T05:18:57.565Z,101799.25
2022-09-11T05:21:25.600Z,101805.25
2022-09-11T05:23:54.043Z,101788.28
2022-09-11T05:26:23.327Z,101807.03
2022-09-11T05:29:00.573Z,101806.94
2022-09-11T05:31:28.997Z,101812.03
2022-09-11T05:33:56.229Z,101814.88
2022-09-11T05:36:23.660Z,101815.00
2022-09-11T05:38:50.282Z,101817.28
2022-09-11T05:41:17.438Z,101815.06
2022-09-11T05:43:44.214Z,101826.88
2022-09-11T05:46:13.467Z,101826.41
2022-09-11T05:48:40.232Z,101823.44
2022-09-11T05:51:21.766Z,101789.53
2022-09-11T05:53:52.145Z,101822.78
2022-09-11T05:56:20.716Z,101826.41
2022-09-11T05:58:48.690Z,101821.59
2022-09-11T06:01:17.491Z,101823.50
2022-09-11T06:03:44.427Z,101827.28
2022-09-11T06:06:12.751Z,101819.69
2022-09-11T06:08:43.794Z,101806.81
2022-09-11T06:11:14.868Z,101833.63
2022-09-11T06:13:44.011Z,101836.69
2022-09-11T06:16:17.842Z,101843.94
2022-09-11T06:18:45.889Z,101844.44
2022-09-11T06:21:13.182Z,101837.44
2022-09-11T06:23:40.196Z,101839.38
2022-09-11T06:26:12.344Z,101824.28
2022-09-11T06:28:39.240Z,101830.25
2022-09-11T06:31:13.469Z,101827.34
2022-09-11T06:33:41.131Z,101825.81
2022-09-11T06:36:17.097Z,101843.13
2022-09-11T06:38:46.867Z,101827.00
2022-09-11T06:41:15.761Z,101838.25
2022-09-11T06:43:43.886Z,101830.00
2022-09-11T06:46:13.321Z,101839.97
2022-09-11T06:48:44.043Z,101827.81
2022-09-11T06:51:12.754Z,101823.06
2022-09-11T06:53:40.989Z,101843.03
2022-09-11T06:56:12.239Z,101842.44
2022-09-11T06:58:39.949Z,101837.44
2022-09-11T07:01:11.167Z,101846.34
2022-09-11T07:03:38.094Z,101834.94
2022-09-11T07:06:06.307Z,101847.78
2022-09-11T07:08:32.700Z,101856.13
2022-09-11T07:11:04.636Z,101850.38
2022-09-11T07:13:36.767Z,101853.09
2022-09-11T07:16:08.103Z,101830.69
2022-09-11T07:18:35.427Z,101848.41
2022-09-11T07:21:06.642Z,101847.78
2022-09-11T07:23:34.814Z,101852.81
2022-09-11T07:26:09.503Z,101839.31
2022-09-11T07:28:37.749Z,101849.91
2022-09-11T07:31:20.528Z,101858.00
2022-09-11T07:33:48.773Z,101863.19
2022-09-11T07:36:30.130Z,101863.00
2022-09-11T07:38:58.319Z,101839.94
2022-09-11T07:41:26.193Z,101862.16
2022-09-11T07:43:54.961Z,101857.34
2022-09-11T07:46:22.115Z,101849.88
2022-09-11T07:48:48.726Z,101855.66
2022-09-11T07:51:16.871Z,101864.78
2022-09-11T07:53:48.659Z,101860.59
2022-09-11T07:56:18.353Z,101858.06
2022-09-11T07:58:45.505Z,101862.94
2022-09-11T08:01:14.954Z,101861.63
2022-09-11T08:03:43.137Z,101867.75
2022-09-11T08:06:18.926Z,101842.56
2022-09-11T08:08:52.514Z,101845.31
2022-09-11T08:11:19.750Z,101850.84
2022-09-11T08:13:51.090Z,101860.09
2022-09-11T08:16:19.371Z,101850.53
2022-09-11T08:18:46.130Z,101847.81
2022-09-11T08:21:13.293Z,101860.06
2022-09-11T08:23:42.008Z,101863.31
2022-09-11T08:26:19.683Z,101861.25
2022-09-11T08:28:46.095Z,101861.16
2022-09-11T08:31:13.187Z,101856.66
2022-09-11T08:33:39.875Z,101858.41
2022-09-11T08:36:09.685Z,101856.19
2022-09-11T08:38:37.451Z,101864.53
2022-09-11T08:41:11.382Z,101868.09
2022-09-11T08:43:52.126Z,101839.59
2022-09-11T08:46:23.839Z,101847.13
2022-09-11T08:49:01.505Z,101851.75
2022-09-11T08:51:28.020Z,101853.06
2022-09-11T08:53:56.944Z,101852.19
2022-09-11T08:56:29.371Z,101863.00
2022-09-11T08:59:08.717Z,101870.56
2022-09-11T09:01:53.318Z,101871.78
2022-09-11T09:04:35.377Z,101872.22
2022-09-11T09:07:14.262Z,101875.34
2022-09-11T09:09:55.837Z,101862.09
2022-09-11T09:12:34.088Z,101861.84
2022-09-11T09:15:14.165Z,101862.25
2022-09-11T09:17:46.515Z,101861.97
2022-09-11T09:20:21.336Z,101852.22
2022-09-11T09:22:56.267Z,101855.06
2022-09-11T09:25:24.858Z,101853.19
2022-09-11T09:27:56.800Z,101850.34
2022-09-11T09:30:24.654Z,101859.19
2022-09-11T09:33:20.426Z,101856.66
2022-09-11T09:35:47.890Z,101855.94
2022-09-11T09:38:18.652Z,101852.28
2022-09-11T09:41:03.546Z,101867.72
2022-09-11T09:43:51.023Z,101864.06
2022-09-11T09:46:32.225Z,101862.50
2022-09-11T09:48:59.429Z,101865.72
2022-09-11T09:51:25.842Z,101870.25
2022-09-11T09:54:00.411Z,101865.03
2022-09-11T09:56:28.203Z,101873.34
2022-09-11T09:59:02.801Z,101876.75
2022-09-11T10:01:43.935Z,101879.59
2022-09-11T10:04:14.935Z,101865.72
2022-09-11T10:06:41.682Z,101876.88
2022-09-11T10:09:20.101Z,101890.69
2022-09-11T10:11:52.058Z,101892.69
2022-09-11T10:14:47.194Z,101888.84
2022-09-11T10:17:20.157Z,101893.63
2022-09-11T10:19:46.706Z,101893.84
2022-09-11T10:22:30.760Z,101898.56
2022-09-11T10:25:10.799Z,101878.69
2022-09-11T10:28:05.770Z,101893.81
2022-09-11T10:30:39.007Z,101899.06
2022-09-11T10:33:16.481Z,101891.66
2022-09-11T10:35:52.408Z,101858.56
2022-09-11T10:38:19.951Z,101889.75
2022-09-11T10:41:12.622Z,101888.59
2022-09-11T10:43:50.207Z,101896.41
2022-09-11T10:46:19.785Z,101892.41
2022-09-11T10:48:55.292Z,101881.66
2022-09-11T10:51:23.897Z,101881.47
2022-09-11T10:54:15.670Z,101887.00
2022-09-11T10:57:14.645Z,101877.22
2022-09-11T10:59:53.359Z,101884.75
2022-09-11T11:02:29.299Z,101885.50
2022-09-11T11:05:00.166Z,101880.16
2022-09-11T11:07:42.706Z,101880.66
2022-09-11T11:10:44.688Z,101881.13
2022-09-11T11:13:22.689Z,101865.88
2022-09-11T11:16:12.430Z,101852.72
2022-09-11T11:19:00.785Z,101874.88
2022-09-11T11:21:48.440Z,101875.91
2022-09-11T11:24:54.073Z,101882.69
2022-09-11T11:27:27.490Z,101874.81
2022-09-11T11:30:24.477Z,101874.94
2022-09-11T11:33:06.567Z,101870.53
2022-09-11T11:35:51.545Z,101879.19
2022-09-11T11:38:31.727Z,101866.13
2022-09-11T11:41:07.808Z,101848.75
2022-09-11T11:43:39.709Z,101837.53
2022-09-11T11:46:15.663Z,101832.88
2022-09-11T11:48:49.849Z,101850.13
2022-09-11T11:51:24.243Z,101841.81
2022-09-11T11:54:12.250Z,101839.69
2022-09-11T11:56:47.099Z,101845.81
2022-09-11T11:59:31.158Z,101847.81
2022-09-11T12:02:09.599Z,101855.41
2022-09-11T12:05:02.180Z,101861.19
2022-09-11T12:07:33.780Z,101852.63
2022-09-11T12:10:02.023Z,101853.63
2022-09-11T12:12:33.851Z,101852.38
2022-09-11T12:15:09.424Z,101848.00
2022-09-11T12:17:40.235Z,101850.41
2022-09-11T12:20:09.430Z,101852.22
2022-09-11T12:22:38.997Z,101840.19
2022-09-11T12:25:28.247Z,101843.13
2022-09-11T12:28:22.947Z,101855.34
2022-09-11T12:30:56.395Z,101859.38
2022-09-11T12:33:40.796Z,101851.78
2022-09-11T12:36:14.029Z,101846.84
2022-09-11T12:38:45.343Z,101840.00
2022-09-11T12:41:21.216Z,101830.63
2022-09-11T12:43:49.359Z,101828.69
2022-09-11T12:46:21.953Z,101831.66
2022-09-11T12:49:20.472Z,101807.22
2022-09-11T12:51:52.803Z,101828.06
2022-09-11T12:54:41.712Z,101814.72
2022-09-11T12:57:19.192Z,101834.81
2022-09-11T12:59:53.260Z,101815.00
2022-09-11T13:02:25.798Z,101828.44
2022-09-11T13:04:53.702Z,101830.53
2022-09-11T13:07:47.048Z,101800.69
2022-09-11T13:10:33.287Z,101821.56
2022-09-11T13:13:02.486Z,101815.03
2022-09-11T13:15:41.138Z,101816.13
2022-09-11T13:18:33.603Z,101791.97
2022-09-11T13:21:04.672Z,101823.28
2022-09-11T13:23:31.112Z,101817.53
2022-09-11T13:25:58.228Z,101814.81
2022-09-11T13:28:27.551Z,101810.44
2022-09-11T13:31:02.790Z,101785.13
2022-09-11T13:33:31.046Z,101817.53
2022-09-11T13:36:02.526Z,101816.34
2022-09-11T13:38:30.451Z,101813.47
2022-09-11T13:41:06.891Z,101814.03
2022-09-11T13:43:44.862Z,101809.00
2022-09-11T13:46:14.367Z,101802.88
2022-09-11T13:48:41.130Z,101789.09
2022-09-11T13:51:12.955Z,101803.31
2022-09-11T13:53:40.948Z,101801.59
2022-09-11T13:56:21.371Z,101794.53
2022-09-11T13:58:52.902Z,101792.66
2022-09-11T14:01:20.013Z,101784.66
2022-09-11T14:03:48.898Z,101787.72
2022-09-11T14:06:20.587Z,101790.09
2022-09-11T14:08:52.808Z,101790.47
2022-09-11T14:11:28.173Z,101799.69
2022-09-11T14:14:12.078Z,101786.50
2022-09-11T14:16:47.859Z,101788.97
2022-09-11T14:19:19.452Z,101786.72
2022-09-11T14:21:48.434Z,101777.66
2022-09-11T14:24:33.046Z,101785.56
2022-09-11T14:27:04.427Z,101789.69
2022-09-11T14:29:32.874Z,101787.31
2022-09-11T14:32:36.945Z,101784.59
2022-09-11T14:35:09.662Z,101788.38
2022-09-11T14:37:45.672Z,101777.53
2022-09-11T14:40:19.371Z,101790.75
2022-09-11T14:42:47.035Z,101788.28
2022-09-11T14:45:22.300Z,101786.63
2022-09-11T14:47:48.800Z,101779.66
2022-09-11T14:50:15.222Z,101774.00
2022-09-11T14:52:44.857Z,101769.88
2022-09-11T14:55:16.657Z,101767.91
2022-09-11T14:57:43.099Z,101785.09
2022-09-11T15:00:13.649Z,101776.84
2022-09-11T15:02:40.186Z,101776.63
2022-09-11T15:05:15.506Z,101774.84
2022-09-11T15:07:43.308Z,101782.75
2022-09-11T15:10:10.370Z,101772.97
2022-09-11T15:12:36.842Z,101771.28
2022-09-11T15:15:04.230Z,101761.41
2022-09-11T15:17:31.614Z,101769.06
2022-09-11T15:20:00.381Z,101759.53
2022-09-11T15:22:27.198Z,101757.50
2022-09-11T15:24:53.783Z,101756.81
2022-09-11T15:27:20.248Z,101745.72
2022-09-11T15:29:46.626Z,101759.06
2022-09-11T15:32:14.470Z,101742.91
2022-09-11T15:34:42.378Z,101765.53
2022-09-11T15:37:08.934Z,101757.03
2022-09-11T15:39:35.386Z,101755.41
2022-09-11T15:42:02.115Z,101735.59
2022-09-11T15:44:29.360Z,101741.50
2022-09-11T15:47:00.471Z,101740.31
2022-09-11T15:49:30.077Z,101744.69
2022-09-11T15:51:57.970Z,101745.16
2022-09-11T15:54:24.490Z,101741.03
2022-09-11T15:56:52.136Z,101740.19
2022-09-11T15:59:18.546Z,101744.81
2022-09-11T16:01:45.517Z,101737.97
2022-09-11T16:04:14.698Z,101746.81
2022-09-11T16:06:43.801Z,101733.25
2022-09-11T16:09:16.721Z,101745.63
2022-09-11T16:11:43.836Z,101731.38
2022-09-11T16:14:16.746Z,101744.56
2022-09-11T16:16:44.035Z,101735.59
2022-09-11T16:19:10.356Z,101737.13
2022-09-11T16:21:36.904Z,101739.41
2022-09-11T16:24:04.703Z,101738.56
2022-09-11T16:26:31.641Z,101735.84
2022-09-11T16:28:58.415Z,101738.56
2022-09-11T16:31:24.959Z,101740.91
2022-09-11T16:33:51.345Z,101732.78
2022-09-11T16:36:20.802Z,101731.38
2022-09-11T16:38:50.149Z,101725.97
2022-09-11T16:41:19.724Z,101730.31
2022-09-11T16:43:48.861Z,101731.38
2022-09-11T16:46:22.177Z,101710.03
2022-09-11T16:48:53.956Z,101715.00
2022-09-11T16:51:23.465Z,101708.13
2022-09-11T16:53:50.346Z,101706.50
2022-09-11T16:56:20.718Z,101709.47
2022-09-11T16:58:47.504Z,101704.03
2022-09-11T17:01:20.312Z,101701.22
2022-09-11T17:03:49.551Z,101686.94
2022-09-11T17:06:19.543Z,101703.91
2022-09-11T17:08:48.404Z,101702.97
2022-09-11T17:11:18.043Z,101704.97
2022-09-11T17:13:46.167Z,101704.00
2022-09-11T17:16:16.733Z,101709.19
2022-09-11T17:18:47.450Z,101699.44
2022-09-11T17:21:14.585Z,101700.16
2022-09-11T17:23:41.059Z,101697.09
2022-09-11T17:26:09.064Z,101704.38
2022-09-11T17:28:37.127Z,101703.22
2022-09-11T17:31:05.354Z,101690.47
2022-09-11T17:33:35.552Z,101696.25
2022-09-11T17:36:03.846Z,101681.84
2022-09-11T17:38:30.846Z,101680.19
2022-09-11T17:40:59.377Z,101698.47
2022-09-11T17:43:26.354Z,101700.59
2022-09-11T17:45:52.846Z,101696.09
2022-09-11T17:48:20.441Z,101710.94
2022-09-11T17:50:48.730Z,101699.84
2022-09-11T17:53:17.006Z,101684.78
2022-09-11T17:55:44.456Z,101692.44
2022-09-11T17:58:11.087Z,101692.44
2022-09-11T18:00:37.677Z,101686.53
2022-09-11T18:03:04.099Z,101689.59
2022-09-11T18:05:30.507Z,101696.75
2022-09-11T18:08:00.023Z,101692.72
2022-09-11T18:10:27.560Z,101691.78
2022-09-11T18:12:53.964Z,101693.88
2022-09-11T18:15:20.721Z,101703.88
2022-09-11T18:17:47.737Z,101690.91
2022-09-11T18:20:15.008Z,101695.13
2022-09-11T18:22:42.470Z,101690.66
2022-09-11T18:25:09.919Z,101683.25
2022-09-11T18:27:36.479Z,101684.31
2022-09-11T18:30:03.384Z,101678.63
2022-09-11T18:32:30.112Z,101689.00
2022-09-11T18:35:00.168Z,101694.50
2022-09-11T18:37:26.649Z,101689.78
2022-09-11T18:39:53.020Z,101696.81
2022-09-11T18:42:19.409Z,101680.91
2022-09-11T18:44:45.797Z,101694.06
2022-09-11T18:47:12.182Z,101689.91
2022-09-11T18:49:38.614Z,101691.66
2022-09-11T18:52:05.057Z,101694.00
2022-09-11T18:54:32.512Z,101696.69
2022-09-11T18:57:00.235Z,101698.34
2022-09-11T18:59:27.065Z,101693.16
2022-09-11T19:01:53.763Z,101694.44
2022-09-11T19:04:21.036Z,101685.50
2022-09-11T19:06:47.623Z,101681.22
2022-09-11T19:09:14.684Z,101682.28
2022-09-11T19:11:43.846Z,101690.63
2022-09-11T19:14:12.499Z,101693.69
2022-09-11T19:16:39.879Z,101693.09
2022-09-11T19:19:07.527Z,101703.53
2022-09-11T19:21:34.298Z,101706.69
2022-09-11T19:24:01.537Z,101695.09
2022-09-11T19:26:32.715Z,101696.16
2022-09-11T19:29:00.316Z,101689.16
2022-09-11T19:31:29.369Z,101689.84
2022-09-11T19:33:57.722Z,101701.69
2022-09-11T19:36:26.560Z,101693.50
2022-09-11T19:38:55.963Z,101669.31
2022-09-11T19:41:25.901Z,101664.63
2022-09-11T19:43:54.101Z,101700.56
2022-09-11T19:46:24.158Z,101714.31
2022-09-11T19:48:53.338Z,101689.41
2022-09-11T19:51:28.526Z,101700.63
2022-09-11T19:53:56.611Z,101710.66
2022-09-11T19:56:24.359Z,101712.41
2022-09-11T19:58:51.522Z,101706.44
2022-09-11T20:01:21.436Z,101710.78
2022-09-11T20:03:48.839Z,101690.16
2022-09-11T20:06:17.017Z,101715.88
2022-09-11T20:08:45.435Z,101708.91
2022-09-11T20:11:14.914Z,101712.19
2022-09-11T20:13:41.647Z,101705.31
2022-09-11T20:16:11.259Z,101674.28
2022-09-11T20:18:37.750Z,101702.44
2022-09-11T20:21:08.299Z,101709.91
2022-09-11T20:23:35.684Z,101704.91
2022-09-11T20:26:16.820Z,101709.53
2022-09-11T20:28:44.014Z,101709.34
2022-09-11T20:31:15.813Z,101687.19
2022-09-11T20:33:43.331Z,101690.72
2022-09-11T20:36:10.117Z,101698.78
2022-09-11T20:38:36.690Z,101688.84
2022-09-11T20:41:11.475Z,101677.53
2022-09-11T20:43:38.412Z,101688.09
2022-09-11T20:46:05.008Z,101689.53
2022-09-11T20:48:31.940Z,101687.66
2022-09-11T20:51:03.185Z,101696.78
2022-09-11T20:53:29.581Z,101690.97
2022-09-11T20:56:04.232Z,101692.22
2022-09-11T20:58:30.799Z,101694.13
2022-09-11T21:00:58.013Z,101691.81
2022-09-11T21:03:25.258Z,101678.81
2022-09-11T21:05:52.164Z,101683.59
2022-09-11T21:08:18.802Z,101687.78
2022-09-11T21:10:45.361Z,101687.56
2022-09-11T21:13:11.792Z,101685.09
2022-09-11T21:15:46.387Z,101681.75
2022-09-11T21:18:14.126Z,101667.66
2022-09-11T21:20:40.871Z,101668.28
2022-09-11T21:23:07.544Z,101680.09
2022-09-11T21:25:40.299Z,101669.53
2022-09-11T21:28:06.716Z,101666.19
2022-09-11T21:30:33.815Z,101668.47
2022-09-11T21:33:00.260Z,101676.81
2022-09-11T21:35:26.718Z,101658.94
2022-09-11T21:37:53.121Z,101670.34
2022-09-11T21:40:19.483Z,101668.91
2022-09-11T21:42:45.997Z,101666.59
2022-09-11T21:45:12.446Z,101661.63
2022-09-11T21:47:38.824Z,101657.50
2022-09-11T21:50:07.033Z,101660.59
2022-09-11T21:52:33.819Z,101662.47
2022-09-11T21:55:00.489Z,101663.28
2022-09-11T21:57:30.903Z,101667.03
2022-09-11T21:59:58.027Z,101661.25
2022-09-11T22:02:25.741Z,101669.56
2022-09-11T22:04:52.686Z,101667.69
2022-09-11T22:07:19.996Z,101659.19
2022-09-11T22:09:49.533Z,101662.09
2022-09-11T22:12:16.076Z,101662.09
2022-09-11T22:14:44.388Z,101671.19
2022-09-11T22:17:12.156Z,101667.25
2022-09-11T22:19:38.632Z,101660.19
2022-09-11T22:22:06.663Z,101665.78
2022-09-11T22:24:33.115Z,101661.06
2022-09-11T22:26:59.552Z,101665.41
2022-09-11T22:29:25.910Z,101645.53
2022-09-11T22:31:52.442Z,101648.84
2022-09-11T22:34:18.847Z,101659.84
2022-09-11T22:36:45.241Z,101652.63
2022-09-11T22:39:11.605Z,101648.91
2022-09-11T22:41:38.031Z,101655.34
2022-09-11T22:44:04.713Z,101646.84
2022-09-11T22:46:31.075Z,101652.06
2022-09-11T22:48:57.431Z,101640.03
2022-09-11T22:51:23.849Z,101633.97
2022-09-11T22:53:50.960Z,101640.03
2022-09-11T22:56:17.708Z,101632.59
2022-09-11T22:58:44.215Z,101639.22
2022-09-11T23:01:12.761Z,101634.88
2022-09-11T23:03:39.309Z,101635.47
2022-09-11T23:06:24.427Z,101629.47
2022-09-11T23:08:51.042Z,101629.25
2022-09-11T23:11:19.946Z,101633.59
2022-09-11T23:13:48.709Z,101636.53
2022-09-11T23:16:21.168Z,101614.38
2022-09-11T23:18:48.269Z,101628.03
2022-09-11T23:21:14.891Z,101639.88
2022-09-11T23:23:42.462Z,101635.50
2022-09-11T23:26:13.971Z,101632.81
2022-09-11T23:28:40.773Z,101622.25
2022-09-11T23:31:19.364Z,101616.06
2022-09-11T23:33:46.938Z,101616.88
2022-09-11T23:36:15.287Z,101609.44
2022-09-11T23:38:45.973Z,101619.59
2022-09-11T23:41:12.721Z,101610.47
2022-09-11T23:43:39.366Z,101616.06
2022-09-11T23:46:06.022Z,101604.06
2022-09-11T23:48:32.532Z,101611.09
2022-09-11T23:51:01.032Z,101609.47
2022-09-11T23:53:29.037Z,101591.19
2022-09-11T23:55:56.457Z,101602.59
2022-09-11T23:58:23.754Z,101600.13
